Latest Coastal Weather Observations for Yarram Airport

IDV60701

Issued at 5:45 am EDT Monday 24 November 2014 (issued every 10 minutes, with the page automatically refreshed every 10 minutes)

About coastal observations | Map of coastal stations | Coastal observations for VIC | Marine services | Other Formats
Station Details ID: 085151 Name: YARRAM AIRPORT Lat: -38.56 Lon: 146.75 Height: 17.9 m
Data from the previous 72 hours. | See also: Recent months at Yarram Airport
Date/Time
EDT
Temp

°C
Wind Pressure Rain
since 9am
mm
Weather Cloud Vis
km
Sea
Height
m
Swell
Dir
 
Speed
knots
Gust
knots
hPa Trend Height
m
Period
s
Dir
24/05:30am 11.9 NE 5 5 1010.3 - 0.0 - - - - - - -
24/05:00am 11.6 NE 5 6 1010.3 - 0.0 - - - - - - -
24/04:30am 11.8 ENE 4 5 1010.1 - 0.0 - - - - - - -
24/04:00am 11.8 NE 7 8 1010.5 - 0.0 - - - - - - -
24/03:30am 11.7 NE 3 5 1011.0 - 0.0 - - - - - - -
24/03:00am 12.3 ENE 5 6 1011.2 - 0.0 - - - - - - -
24/02:30am 12.5 ENE 6 8 1012.1 - 0.0 - - - - - - -
24/02:00am 12.2 NE 5 7 1012.7 - 0.0 - - - - - - -
24/01:30am 12.2 NNE 6 7 1013.2 - 0.0 - - - - - - -
24/01:00am 12.0 NNE 4 5 1013.4 - 0.0 - - - - - - -
24/12:30am 11.7 NE 3 5 1013.6 - 0.0 - - - - - - -
24/12:00am 12.4 E 4 4 1014.2 - 0.0 - - - - - - -
 
Date/Time
EDT
Temp

°C
Wind Pressure Rain
since 9am
mm
Weather Cloud Vis
km
Sea
Height
m
Swell
Dir
 
Speed
knots
Gust
knots
hPa Trend Height
m
Period
s
Dir
23/11:30pm 13.3 ENE 5 6 1014.3 - 0.0 - - - - - - -
23/11:00pm 13.2 E 5 6 1014.6 - 0.0 - - - - - - -
23/10:30pm 13.3 ENE 6 7 1014.8 - 0.0 - - - - - - -
23/10:00pm 13.6 ENE 5 7 1015.0 - 0.0 - - - - - - -
23/09:30pm 14.1 NE 6 7 1014.8 - 0.0 - - - - - - -
23/09:00pm 14.0 ENE 5 6 1014.7 - 0.0 - - - - - - -
23/08:30pm 14.9 E 4 5 1014.4 - 0.0 - - - - - - -
23/08:00pm 15.8 ENE 5 7 1014.2 - 0.0 - - - - - - -
23/07:30pm 16.5 E 5 6 1013.9 - 0.0 - - - - - - -
23/07:00pm 17.0 ESE 5 7 1013.9 - 0.0 - - - - - - -
23/06:30pm 17.1 SE 7 9 1013.5 - 0.0 - - - - - - -
23/06:00pm 17.6 SSE 8 10 1013.4 - 0.0 - - - - - - -
23/05:30pm 17.6 SSE 9 12 1013.0 - 0.0 - - - - - - -
23/05:00pm 18.2 SSE 10 13 1012.6 - 0.0 - - - - - - -
23/04:30pm 19.1 SSE 12 15 1012.3 - 0.0 - - - - - - -
23/04:00pm 19.1 SSE 11 16 1012.4 - 0.0 - - - - - - -
23/03:30pm 19.5 SSE 11 14 1012.1 - 0.0 - - - - - - -
23/03:00pm 21.0 S 10 13 1011.7 - 0.0 - - - - - - -
23/02:30pm 20.2 SE 8 12 1011.6 - 0.0 - - - - - - -
23/02:00pm 20.2 SSE 11 15 1011.7 - 0.0 - - - - - - -
23/01:30pm 21.0 SSE 11 16 1011.5 - 0.0 - - - - - - -
23/01:00pm 20.6 SSE 12 18 1011.6 - 0.0 - - - - - - -
23/12:30pm 22.1 S 11 17 1011.7 - 0.0 - - - - - - -
23/12:00pm 22.0 SSW 9 13 1011.8 - 0.0 - - - - - - -
23/11:30am 22.0 SSW 10 14 1012.0 - 0.0 - - - - - - -
23/11:00am 20.7 SSW 10 15 1012.1 - 0.0 - - - - - - -
23/10:30am 21.5 SW 12 17 1012.3 - 0.0 - - - - - - -
23/10:00am 20.5 SW 11 16 1012.4 - 0.0 - - - - - - -
23/09:30am 20.1 SW 11 15 1012.3 - 0.0 - - - - - - -
23/09:00am 19.1 SW 11 14 1012.2 - 0.0 - - - - - - -
23/08:30am 18.3 SW 13 17 1012.0 - 0.0 - - - - - - -
23/08:00am 18.1 WSW 8 12 1011.9 - 0.0 - - - - - - -
23/07:30am 17.3 W 9 12 1011.6 - 0.0 - - - - - - -
23/07:00am 16.3 WSW 10 13 1011.2 - 0.0 - - - - - - -
23/06:30am 15.5 WSW 10 12 1011.0 - 0.0 - - - - - - -
23/06:00am 14.7 W 7 11 1010.6 - 0.0 - - - - - - -
23/05:30am 15.2 W 9 13 1009.9 - 0.0 - - - - - - -
23/05:00am 15.5 W 11 16 1009.6 - 0.0 - - - - - - -
23/04:30am 15.9 W 13 18 1009.1 - 0.0 - - - - - - -
23/04:00am 15.7 WSW 11 14 1008.7 - 0.0 - - - - - - -
23/03:30am 16.2 WSW 8 11 1008.7 - 0.0 - - - - - - -
23/03:00am 17.1 SW 7 10 1008.5 - 0.0 - - - - - - -
23/02:30am 18.3 WNW 8 13 1008.1 - 0.0 - - - - - - -
23/02:00am 18.8 WNW 9 13 1008.0 - 0.0 - - - - - - -
23/01:30am 18.5 W 9 10 1007.6 - 0.0 - - - - - - -
23/01:00am 18.9 W 9 11 1007.4 - 0.0 - - - - - - -
23/12:30am 20.3 W 10 14 1007.4 - 0.0 - - - - - - -
23/12:00am 20.3 WNW 10 14 1007.4 - 0.0 - - - - - - -
 
Date/Time
EDT
Temp

°C
Wind Pressure Rain
since 9am
mm
Weather Cloud Vis
km
Sea
Height
m
Swell
Dir
 
Speed
knots
Gust
knots
hPa Trend Height
m
Period
s
Dir
22/11:30pm 20.6 W 10 13 1007.0 - 0.0 - - - - - - -
22/11:00pm 18.7 SW 12 18 1006.6 - 0.0 - - - - - - -
22/10:30pm 19.6 NE 6 8 1005.9 - 0.0 - - - - - - -
22/10:00pm 21.1 NE 9 11 1005.8 - 0.0 - - - - - - -
22/09:30pm 20.3 ENE 7 9 1006.2 - 0.0 - - - - - - -
22/09:00pm 20.9 ESE 5 7 1006.4 - 0.0 - - - - - - -
22/08:30pm 22.2 ENE 7 8 1006.4 - 0.0 - - - - - - -
22/08:00pm 23.4 NE 9 13 1005.8 - 0.0 - - - - - - -
22/07:30pm 24.5 NE 7 10 1005.5 - 0.0 - - - - - - -
22/07:00pm 25.7 E 7 9 1005.8 - 0.0 - - - - - - -
22/06:30pm 28.3 N 8 12 1005.7 - 0.0 - - - - - - -
22/06:00pm 29.7 NNW 9 13 1005.4 - 0.0 - - - - - - -
22/05:30pm 29.6 N 9 11 1005.6 - 0.0 - - - - - - -
22/05:00pm 29.5 N 9 16 1006.0 - 0.0 - - - - - - -
22/04:30pm 28.6 NNW 8 12 1006.7 - 0.0 - - - - - - -
22/04:00pm 29.2 NW 7 9 1006.9 - 0.0 - - - - - - -
22/03:30pm 29.7 WNW 8 14 1006.9 - 0.0 - - - - - - -
22/03:00pm 29.1 WNW 7 13 1007.4 - 0.0 - - - - - - -
22/02:30pm 28.2 WNW 7 11 1007.7 - 0.0 - - - - - - -
22/02:00pm 26.7 NNW 9 13 1008.0 - 0.0 - - - - - - -
22/01:30pm 26.8 WNW 12 15 1008.6 - 0.0 - - - - - - -
22/01:00pm 27.8 NW 8 13 1008.8 - 0.0 - - - - - - -
22/12:30pm 26.1 NNW 9 12 1008.9 - 0.0 - - - - - - -
22/12:00pm 25.0 W 2 6 1009.5 - 0.0 - - - - - - -
22/11:30am 25.0 W 3 5 1009.8 - 0.0 - - - - - - -
22/11:00am 24.6 NE 3 5 1010.1 - 0.0 - - - - - - -
22/10:30am 24.1 NE 6 11 1010.3 - 0.0 - - - - - - -
22/10:00am 23.4 NNE 7 11 1010.7 - 0.0 - - - - - - -
22/09:30am 21.9 ENE 8 11 1011.2 - 0.0 - - - - - - -
22/09:00am 20.4 ENE 9 13 1010.8 - 0.2 - - - - - - -
22/08:30am 18.5 NE 7 10 1011.2 - 0.2 - - - - - - -
22/08:00am 17.3 ENE 8 11 1011.3 - 0.2 - - - - - - -
22/07:30am 15.8 NE 6 8 1011.3 - 0.2 - - - - - - -
22/07:00am 14.3 NE 7 9 1010.8 - 0.2 - - - - - - -
22/06:30am 12.5 ENE 6 8 1010.7 - 0.2 - - - - - - -
22/06:00am 12.2 NE 6 8 1011.0 - 0.2 - - - - - - -
22/05:30am 12.5 NNE 9 11 1010.8 - 0.2 - - - - - - -
22/05:00am 11.9 NNE 9 11 1010.7 - 0.2 - - - - - - -
22/04:30am 11.9 NNE 9 11 1010.8 - 0.2 - - - - - - -
22/04:00am 11.5 NE 5 8 1010.9 - 0.2 - - - - - - -
22/03:30am 11.3 ENE 6 7 1010.9 - 0.2 - - - - - - -
22/03:00am 11.6 NE 7 8 1011.2 - 0.2 - - - - - - -
22/02:30am 11.5 NE 8 10 1011.3 - 0.2 - - - - - - -
22/02:00am 10.4 NE 6 8 1012.1 - 0.2 - - - - - - -
22/01:30am 10.1 NE 7 8 1012.4 - 0.2 - - - - - - -
22/01:00am 9.7 NNE 8 9 1012.9 - 0.2 - - - - - - -
22/12:30am 8.8 NE 7 9 1013.3 - 0.2 - - - - - - -
22/12:00am 7.9 N 5 6 1013.6 - 0.2 - - - - - - -
 
Date/Time
EDT
Temp

°C
Wind Pressure Rain
since 9am
mm
Weather Cloud Vis
km
Sea
Height
m
Swell
Dir
 
Speed
knots
Gust
knots
hPa Trend Height
m
Period
s
Dir
21/11:30pm 7.3 NE 5 8 1013.8 - 0.2 - - - - - - -
21/11:00pm 10.2 E 1 4 1014.0 - 0.2 - - - - - - -
21/10:30pm 10.5 NNE 7 9 1014.1 - 0.2 - - - - - - -
21/10:00pm 9.8 NW 5 6 1013.7 - 0.2 - - - - - - -
21/09:30pm 10.8 SW 6 7 1013.2 - 0.2 - - - - - - -
21/09:00pm 12.5 SSW 3 5 1013.0 - 0.2 - - - - - - -
21/08:30pm 12.5 SSW 8 9 1012.7 - 0.2 - - - - - - -
21/08:00pm 14.4 SW 7 9 1012.4 - 0.2 - - - - - - -
21/07:30pm 16.1 SW 10 14 1012.0 - 0.2 - - - - - - -
21/07:00pm 17.3 SW 14 18 1011.4 - 0.2 - - - - - - -
21/06:30pm 18.0 SW 14 18 1011.0 - 0.2 - - - - - - -
21/06:00pm 18.9 SW 15 18 1010.7 - 0.2 - - - - - - -
21/05:30pm 19.7 SW 16 20 1010.6 - 0.2 - - - - - - -
21/05:00pm 20.4 SW 15 19 1010.5 - 0.2 - - - - - - -
21/04:30pm 20.3 SW 17 24 1010.3 - 0.2 - - - - - - -
21/04:00pm 20.4 WSW 18 24 1010.2 - 0.2 - - - - - - -
21/03:30pm 20.5 SW 19 27 1010.1 - 0.2 - - - - - - -
21/03:00pm 20.6 SW 18 23 1010.2 - 0.2 - - - - - - -
21/02:30pm 20.6 WSW 16 22 1010.0 - 0.2 - - - - - - -
21/02:00pm 20.2 WSW 17 23 1010.0 - 0.2 - - - - - - -
21/01:30pm 20.1 WSW 17 23 1010.1 - 0.2 - - - - - - -
21/01:00pm 19.6 WSW 16 21 1010.1 - 0.2 - - - - - - -
21/12:30pm 19.2 WSW 17 23 1010.2 - 0.2 - - - - - - -
21/12:00pm 19.1 W 18 25 1010.2 - 0.2 - - - - - - -
21/11:30am 17.4 WSW 18 23 1010.0 - 0.2 - - - - - - -
21/11:00am 16.6 WSW 15 21 1009.9 - 0.2 - - - - - - -
21/10:30am 15.5 W 13 24 1009.9 - 0.2 - - - - - - -
21/10:00am 15.1 W 14 19 1009.6 - 0.2 - - - - - - -
21/09:30am 15.2 WSW 11 18 1009.4 - 0.2 - - - - - - -
21/09:00am 15.2 WSW 14 20 1009.0 - 0.0 - - - - - - -
21/08:30am 16.8 W 13 16 1008.1 - 0.0 - - - - - - -
21/08:00am 16.8 W 13 16 1007.6 - 0.0 - - - - - - -
21/07:30am 16.7 W 13 17 1007.1 - 0.0 - - - - - - -
21/07:00am 16.1 W 15 20 1006.7 - 0.0 - - - - - - -
21/06:30am 16.1 WSW 13 22 1006.5 - 0.0 - - - - - - -
21/06:00am 16.1 WSW 13 19 1005.8 - 0.0 - - - - - - -

Other Formats:

Comma delimited format used in spreadsheet applications
http://www.bom.gov.au/fwo/IDV60701/IDV60701.95890.axf

JavaScript Object Notation format (JSON) in row-major order
http://www.bom.gov.au/fwo/IDV60701/IDV60701.95890.json